createdAt,value
2018-07-04T00:00:13.445Z,15.15
2018-07-04T00:01:13.451Z,15.21
2018-07-04T00:02:13.471Z,15.42
2018-07-04T00:03:13.493Z,15.31
2018-07-04T00:04:13.513Z,15.54
2018-07-04T00:05:13.543Z,15.79
2018-07-04T00:06:13.546Z,15.90
2018-07-04T00:07:13.579Z,16.09
2018-07-04T00:08:13.588Z,16.12
2018-07-04T00:09:13.612Z,16.28
2018-07-04T00:10:13.635Z,16.21
2018-07-04T00:11:13.651Z,16.10
2018-07-04T00:12:13.666Z,16.24
2018-07-04T00:13:13.688Z,16.35
2018-07-04T00:14:13.709Z,16.24
2018-07-04T00:15:13.768Z,15.90
2018-07-04T00:16:13.751Z,15.91
2018-07-04T00:17:13.769Z,15.54
2018-07-04T00:18:13.792Z,15.67
2018-07-04T00:19:13.817Z,15.59
2018-07-04T00:20:13.825Z,15.24
2018-07-04T00:21:13.841Z,15.25
2018-07-04T00:22:13.866Z,15.24
2018-07-04T00:23:13.889Z,15.03
2018-07-04T00:24:13.899Z,15.28
2018-07-04T00:25:13.925Z,15.31
2018-07-04T00:26:13.947Z,15.31
2018-07-04T00:27:13.961Z,15.42
2018-07-04T00:28:13.992Z,15.55
2018-07-04T00:29:14.006Z,15.17
2018-07-04T00:30:14.035Z,15.21
2018-07-04T00:31:14.046Z,15.25
2018-07-04T00:32:14.069Z,15.43
2018-07-04T00:33:14.086Z,15.14
2018-07-04T00:34:14.104Z,15.14
2018-07-04T00:35:14.121Z,15.15
2018-07-04T00:36:14.137Z,15.14
2018-07-04T00:37:14.155Z,15.11
2018-07-04T00:38:14.184Z,15.18
2018-07-04T00:39:14.200Z,15.24
2018-07-04T00:40:14.220Z,14.86
2018-07-04T00:41:14.240Z,14.63
2018-07-04T00:42:14.268Z,14.55
2018-07-04T00:43:14.274Z,14.48
2018-07-04T00:44:14.293Z,14.47
2018-07-04T00:45:14.318Z,14.37
2018-07-04T00:46:14.328Z,14.35
2018-07-04T00:47:14.356Z,14.55
2018-07-04T00:48:14.374Z,14.79
2018-07-04T00:49:14.392Z,14.77
2018-07-04T00:50:14.416Z,14.91
2018-07-04T00:51:14.433Z,15.04
2018-07-04T00:52:14.448Z,15.10
2018-07-04T00:53:14.469Z,15.09
2018-07-04T00:54:14.507Z,14.85
2018-07-04T00:55:14.506Z,14.99
2018-07-04T00:56:14.529Z,14.97
2018-07-04T00:57:14.549Z,14.79
2018-07-04T00:58:14.575Z,14.78
2018-07-04T00:59:14.587Z,14.58
2018-07-04T01:00:14.603Z,14.40
2018-07-04T01:01:14.630Z,14.59
2018-07-04T01:02:14.641Z,14.88
2018-07-04T01:03:14.667Z,14.55
2018-07-04T01:04:14.694Z,14.53
2018-07-04T01:05:14.707Z,14.68
2018-07-04T01:06:14.723Z,14.91
2018-07-04T01:07:14.754Z,14.84
2018-07-04T01:08:14.766Z,14.94
2018-07-04T01:09:14.787Z,14.86
2018-07-04T01:10:14.796Z,14.78
2018-07-04T01:11:14.829Z,14.78
2018-07-04T01:12:14.841Z,14.68
2018-07-04T01:13:14.853Z,14.78
2018-07-04T01:14:14.875Z,14.45
2018-07-04T01:15:14.909Z,14.40
2018-07-04T01:16:14.915Z,14.50
2018-07-04T01:17:14.938Z,14.73
2018-07-04T01:18:14.961Z,14.35
2018-07-04T01:19:14.973Z,13.99
2018-07-04T01:20:14.992Z,14.00
2018-07-04T01:21:15.025Z,13.79
2018-07-04T01:22:15.029Z,13.93
2018-07-04T01:23:15.072Z,14.14
2018-07-04T01:24:15.078Z,13.99
2018-07-04T01:25:15.086Z,14.30
2018-07-04T01:26:15.120Z,14.14
2018-07-04T01:27:15.125Z,14.17
2018-07-04T01:28:15.147Z,14.58
2018-07-04T01:29:15.167Z,14.35
2018-07-04T01:30:15.182Z,14.08
2018-07-04T01:31:15.202Z,14.03
2018-07-04T01:32:15.226Z,13.85
2018-07-04T01:33:15.250Z,14.04
2018-07-04T01:34:15.267Z,13.99
2018-07-04T01:35:15.285Z,14.17
2018-07-04T01:36:15.296Z,14.05
2018-07-04T01:37:15.315Z,14.12
2018-07-04T01:38:15.334Z,13.93
2018-07-04T01:39:15.366Z,14.15
2018-07-04T01:40:15.372Z,14.17
2018-07-04T01:41:15.395Z,14.05
2018-07-04T01:42:15.418Z,14.12
2018-07-04T01:43:15.443Z,14.03
2018-07-04T01:44:15.459Z,13.96
2018-07-04T01:45:15.473Z,14.11
2018-07-04T01:46:15.500Z,13.97
2018-07-04T01:47:15.517Z,13.89
2018-07-04T01:48:15.526Z,13.99
2018-07-04T01:49:15.558Z,14.07
2018-07-04T01:50:15.560Z,14.17
2018-07-04T01:51:15.593Z,14.25
2018-07-04T01:52:15.607Z,14.20
2018-07-04T01:53:15.623Z,14.23
2018-07-04T01:54:15.641Z,14.44
2018-07-04T01:55:15.667Z,14.32
2018-07-04T01:56:15.680Z,14.41
2018-07-04T01:57:15.702Z,14.32
2018-07-04T01:58:15.728Z,14.33
2018-07-04T01:59:15.741Z,14.11
2018-07-04T02:00:15.760Z,14.14
2018-07-04T02:01:15.777Z,14.22
2018-07-04T02:02:15.799Z,14.22
2018-07-04T02:03:15.813Z,14.20
2018-07-04T02:04:15.840Z,14.48
2018-07-04T02:05:15.849Z,14.54
2018-07-04T02:06:15.875Z,14.51
2018-07-04T02:07:15.905Z,14.35
2018-07-04T02:08:15.911Z,14.33
2018-07-04T02:09:15.931Z,14.20
2018-07-04T02:10:15.954Z,14.20
2018-07-04T02:11:15.970Z,14.07
2018-07-04T02:12:15.987Z,14.08
2018-07-04T02:13:16.029Z,14.03
2018-07-04T02:14:16.037Z,13.71
2018-07-04T02:15:16.054Z,13.68
2018-07-04T02:16:16.066Z,13.57
2018-07-04T02:17:16.082Z,13.49
2018-07-04T02:18:16.109Z,13.44
2018-07-04T02:19:16.154Z,13.42
2018-07-04T02:20:16.143Z,13.41
2018-07-04T02:21:16.168Z,13.44
2018-07-04T02:22:16.179Z,13.41
2018-07-04T02:23:16.197Z,13.62
2018-07-04T02:24:16.216Z,13.75
2018-07-04T02:25:16.234Z,13.87
2018-07-04T02:26:16.264Z,13.87
2018-07-04T02:27:16.280Z,13.95
2018-07-04T02:28:16.304Z,14.08
2018-07-04T02:29:16.313Z,13.85
2018-07-04T02:30:16.351Z,13.72
2018-07-04T02:31:16.358Z,13.38
2018-07-04T02:32:16.380Z,13.54
2018-07-04T02:33:16.387Z,13.27
2018-07-04T02:34:16.412Z,13.35
2018-07-04T02:35:16.425Z,13.42
2018-07-04T02:36:16.450Z,13.54
2018-07-04T02:37:16.462Z,13.38
2018-07-04T02:38:16.494Z,13.38
2018-07-04T02:39:16.502Z,13.25
2018-07-04T02:40:16.522Z,13.16
2018-07-04T02:41:16.545Z,13.15
2018-07-04T02:42:16.562Z,13.03
2018-07-04T02:43:16.586Z,12.87
2018-07-04T02:44:16.605Z,13.16
2018-07-04T02:45:16.625Z,13.25
2018-07-04T02:46:16.637Z,13.31
2018-07-04T02:47:16.657Z,13.53
2018-07-04T02:48:16.674Z,13.63
2018-07-04T02:49:16.696Z,13.75
2018-07-04T02:50:16.713Z,13.81
2018-07-04T02:51:16.733Z,13.87
2018-07-04T02:52:16.749Z,13.77
2018-07-04T02:53:16.769Z,13.68
2018-07-04T02:54:16.803Z,13.57
2018-07-04T02:55:16.808Z,13.62
2018-07-04T02:56:16.831Z,13.62
2018-07-04T02:57:16.856Z,13.47
2018-07-04T02:58:16.860Z,13.39
2018-07-04T02:59:16.876Z,13.54
2018-07-04T03:00:16.907Z,13.57
2018-07-04T03:01:16.930Z,13.72
2018-07-04T03:02:16.940Z,13.85
2018-07-04T03:03:16.955Z,13.92
2018-07-04T03:04:16.977Z,13.95
2018-07-04T03:05:16.995Z,13.92
2018-07-04T03:06:17.022Z,13.85
2018-07-04T03:07:17.036Z,13.72
2018-07-04T03:08:17.058Z,13.62
2018-07-04T03:09:17.073Z,13.72
2018-07-04T03:10:17.097Z,13.52
2018-07-04T03:11:17.119Z,13.47
2018-07-04T03:12:17.138Z,13.56
2018-07-04T03:13:17.149Z,13.62
2018-07-04T03:14:17.171Z,13.65
2018-07-04T03:15:17.201Z,13.41
2018-07-04T03:16:17.201Z,13.56
2018-07-04T03:17:17.228Z,13.71
2018-07-04T03:18:17.244Z,13.59
2018-07-04T03:19:17.321Z,13.44
2018-07-04T03:20:17.289Z,13.39
2018-07-04T03:21:17.305Z,13.28
2018-07-04T03:22:17.323Z,13.31
2018-07-04T03:23:17.332Z,13.27
2018-07-04T03:24:17.355Z,13.31
2018-07-04T03:25:17.377Z,13.60
2018-07-04T03:26:17.395Z,13.59
2018-07-04T03:27:17.410Z,13.53
2018-07-04T03:28:17.454Z,13.52
2018-07-04T03:29:17.455Z,13.71
2018-07-04T03:30:17.482Z,13.70
2018-07-04T03:31:17.501Z,13.65
2018-07-04T03:32:17.508Z,13.33
2018-07-04T03:33:17.526Z,13.27
2018-07-04T03:34:17.546Z,13.11
2018-07-04T03:35:17.576Z,13.33
2018-07-04T03:36:17.582Z,13.41
2018-07-04T03:37:17.612Z,13.28
2018-07-04T03:38:17.620Z,13.16
2018-07-04T03:39:17.639Z,13.18
2018-07-04T03:40:17.657Z,13.08
2018-07-04T03:41:17.683Z,13.15
2018-07-04T03:42:17.696Z,13.15
2018-07-04T03:43:17.721Z,13.27
2018-07-04T03:44:17.734Z,13.38
2018-07-04T03:45:17.754Z,13.33
2018-07-04T03:46:17.778Z,13.50
2018-07-04T03:47:17.792Z,13.47
2018-07-04T03:48:17.815Z,13.22
2018-07-04T03:49:17.833Z,13.09
2018-07-04T03:50:17.866Z,13.09
2018-07-04T03:51:17.881Z,13.12
2018-07-04T03:52:17.891Z,13.31
2018-07-04T03:53:17.914Z,13.41
2018-07-04T03:54:17.925Z,13.57
2018-07-04T03:55:17.940Z,13.57
2018-07-04T03:56:17.965Z,13.65
2018-07-04T03:57:17.986Z,13.54
2018-07-04T03:58:18.001Z,13.59
2018-07-04T03:59:18.020Z,13.67
2018-07-04T04:00:18.044Z,13.63
2018-07-04T04:01:18.062Z,13.52
2018-07-04T04:02:18.088Z,13.54
2018-07-04T04:03:18.105Z,13.49
2018-07-04T04:04:18.115Z,13.53
2018-07-04T04:05:18.132Z,13.56
2018-07-04T04:06:18.152Z,13.68
2018-07-04T04:07:18.192Z,13.56
2018-07-04T04:08:18.197Z,13.59
2018-07-04T04:09:18.209Z,13.57
2018-07-04T04:10:18.227Z,13.44
2018-07-04T04:11:18.260Z,13.35
2018-07-04T04:12:18.265Z,13.35
2018-07-04T04:13:18.309Z,13.41
2018-07-04T04:14:18.309Z,13.47
2018-07-04T04:15:18.320Z,13.53
2018-07-04T04:16:18.347Z,13.67
2018-07-04T04:17:18.367Z,13.86
2018-07-04T04:18:18.377Z,14.00
2018-07-04T04:19:18.408Z,14.00
2018-07-04T04:20:18.425Z,13.93
2018-07-04T04:21:18.448Z,13.86
2018-07-04T04:22:18.453Z,14.03
2018-07-04T04:23:18.501Z,13.99
2018-07-04T04:24:18.511Z,13.96
2018-07-04T04:25:18.514Z,13.96
2018-07-04T04:26:18.538Z,14.07
2018-07-04T04:27:18.554Z,14.17
2018-07-04T04:28:18.583Z,14.26
2018-07-04T04:29:18.597Z,14.54
2018-07-04T04:30:18.614Z,14.44
2018-07-04T04:31:18.640Z,14.53
2018-07-04T04:32:18.650Z,14.92
2018-07-04T04:33:18.688Z,15.24
2018-07-04T04:34:18.695Z,15.10
2018-07-04T04:35:18.726Z,14.99
2018-07-04T04:36:18.754Z,14.82
2018-07-04T04:37:18.753Z,14.86
2018-07-04T04:38:18.764Z,15.06
2018-07-04T04:39:18.789Z,15.11
2018-07-04T04:40:18.801Z,15.07
2018-07-04T04:41:18.837Z,15.28
2018-07-04T04:42:18.903Z,15.42
2018-07-04T04:43:18.872Z,15.36
2018-07-04T04:44:18.887Z,15.49
2018-07-04T04:45:18.899Z,15.73
2018-07-04T04:46:18.923Z,15.84
2018-07-04T04:47:18.946Z,15.94
2018-07-04T04:48:18.958Z,15.91
2018-07-04T04:49:18.979Z,15.97
2018-07-04T04:50:19.002Z,16.13
2018-07-04T04:51:19.027Z,16.01
2018-07-04T04:52:19.044Z,15.90
2018-07-04T04:53:19.060Z,15.86
2018-07-04T04:54:19.090Z,15.91
2018-07-04T04:55:19.102Z,16.04
2018-07-04T04:56:19.122Z,16.15
2018-07-04T04:57:19.138Z,16.32
2018-07-04T04:58:19.164Z,16.68
2018-07-04T04:59:19.191Z,17.52
2018-07-04T05:00:19.219Z,18.45
2018-07-04T05:01:19.226Z,19.29
2018-07-04T05:02:19.244Z,19.79
2018-07-04T05:03:19.271Z,20.69
2018-07-04T05:04:19.312Z,21.35
2018-07-04T05:05:19.310Z,21.60
2018-07-04T05:06:19.336Z,21.75
2018-07-04T05:07:19.359Z,21.96
2018-07-04T05:08:19.385Z,22.50
2018-07-04T05:09:19.417Z,23.41
2018-07-04T05:10:19.425Z,24.16
2018-07-04T05:11:19.457Z,23.87
2018-07-04T05:12:19.473Z,24.30
2018-07-04T05:13:19.511Z,24.29
2018-07-04T05:14:19.533Z,24.26
2018-07-04T05:15:19.550Z,25.77
2018-07-04T05:16:19.587Z,26.68
2018-07-04T05:17:19.608Z,26.92
2018-07-04T05:18:19.630Z,26.19
2018-07-04T05:19:19.653Z,25.68
2018-07-04T05:20:19.684Z,24.88
2018-07-04T05:21:19.733Z,24.55
2018-07-04T05:22:19.756Z,24.81
2018-07-04T05:23:19.768Z,24.74
2018-07-04T05:24:19.791Z,25.38
2018-07-04T05:25:19.822Z,25.72
2018-07-04T05:26:19.855Z,24.89
2018-07-04T05:27:19.882Z,24.38
2018-07-04T05:28:19.910Z,24.93
2018-07-04T05:29:19.940Z,24.61
2018-07-04T05:30:19.954Z,24.39
2018-07-04T05:31:19.982Z,24.51
2018-07-04T05:32:20.004Z,25.78
2018-07-04T05:33:20.034Z,25.35
2018-07-04T05:34:20.063Z,24.80
2018-07-04T05:35:20.095Z,24.11
2018-07-04T05:36:20.128Z,23.55
2018-07-04T05:37:20.144Z,23.23
2018-07-04T05:38:20.177Z,23.03
2018-07-04T05:39:20.206Z,22.73
2018-07-04T05:40:20.237Z,22.76
2018-07-04T05:41:20.267Z,23.09
2018-07-04T05:42:20.290Z,23.08
2018-07-04T05:43:20.310Z,22.76
2018-07-04T05:44:20.401Z,22.36
2018-07-04T05:45:20.365Z,23.00
2018-07-04T05:46:20.398Z,23.28
2018-07-04T05:47:20.416Z,22.60
2018-07-04T05:48:20.457Z,23.00
2018-07-04T05:49:20.471Z,24.61
2018-07-04T05:50:20.505Z,24.23
2018-07-04T05:51:20.520Z,23.54
2018-07-04T05:52:20.554Z,24.42
2018-07-04T05:53:20.585Z,24.08
2018-07-04T05:54:20.610Z,24.55
2018-07-04T05:55:20.627Z,24.84
2018-07-04T05:56:20.749Z,25.29
2018-07-04T05:57:20.688Z,25.85
2018-07-04T05:58:20.706Z,25.80
2018-07-04T05:59:20.740Z,26.45
2018-07-04T06:00:20.761Z,25.98
2018-07-04T06:01:20.786Z,26.18
2018-07-04T06:02:20.813Z,26.96
2018-07-04T06:03:20.854Z,27.78
2018-07-04T06:04:20.875Z,26.92
2018-07-04T06:05:20.907Z,26.73
2018-07-04T06:06:20.943Z,26.83
2018-07-04T06:07:20.969Z,27.25
2018-07-04T06:08:20.982Z,27.10
2018-07-04T06:09:21.028Z,27.05
2018-07-04T06:10:21.047Z,28.29
2018-07-04T06:11:21.088Z,28.25
2018-07-04T06:12:21.116Z,27.68
2018-07-04T06:13:21.131Z,27.92
2018-07-04T06:14:21.162Z,28.72
2018-07-04T06:15:21.191Z,30.15
2018-07-04T06:16:21.282Z,29.45
2018-07-04T06:17:21.267Z,28.42
2018-07-04T06:18:21.287Z,28.69
2018-07-04T06:19:21.308Z,28.54
2018-07-04T06:20:21.335Z,28.59
2018-07-04T06:21:21.369Z,28.11
2018-07-04T06:22:21.409Z,27.35
2018-07-04T06:23:21.439Z,29.19
2018-07-04T06:24:21.464Z,28.41
2018-07-04T06:25:21.490Z,26.80
2018-07-04T06:26:21.528Z,26.25
2018-07-04T06:27:21.550Z,26.65
2018-07-04T06:28:21.576Z,26.15
2018-07-04T06:29:21.608Z,25.96
2018-07-04T06:30:21.633Z,25.91
2018-07-04T06:31:21.662Z,26.41
2018-07-04T06:32:21.778Z,27.35
2018-07-04T06:33:21.729Z,28.37
2018-07-04T06:34:21.753Z,28.35
2018-07-04T06:35:21.790Z,27.98
2018-07-04T06:36:21.808Z,28.27
2018-07-04T06:37:21.842Z,28.14
2018-07-04T06:38:21.861Z,27.77
2018-07-04T06:39:21.888Z,27.32
2018-07-04T06:40:21.922Z,27.00
2018-07-04T06:41:21.951Z,26.51
2018-07-04T06:42:21.986Z,26.19
2018-07-04T06:43:22.011Z,26.18
2018-07-04T06:44:22.035Z,26.78
2018-07-04T06:45:22.096Z,26.85
2018-07-04T06:46:22.100Z,27.11
2018-07-04T06:47:22.120Z,27.03
2018-07-04T06:48:22.155Z,29.19
2018-07-04T06:49:22.207Z,30.61
2018-07-04T06:50:22.212Z,31.27
2018-07-04T06:51:22.247Z,32.29
2018-07-04T06:52:22.267Z,32.70
2018-07-04T06:53:22.284Z,32.89
2018-07-04T06:54:22.350Z,33.59
2018-07-04T06:55:22.373Z,33.12
2018-07-04T06:56:22.426Z,34.18
2018-07-04T06:57:22.396Z,34.33
2018-07-04T06:58:22.447Z,31.61
2018-07-04T06:59:22.458Z,29.51
2018-07-04T07:00:22.487Z,28.22
2018-07-04T07:01:22.512Z,28.84
2018-07-04T07:02:22.553Z,30.85
2018-07-04T07:03:22.588Z,31.78
2018-07-04T07:04:22.605Z,32.59
2018-07-04T07:05:22.634Z,33.57
2018-07-04T07:06:22.662Z,33.65
2018-07-04T07:07:22.692Z,33.64
2018-07-04T07:08:22.766Z,33.55
2018-07-04T07:09:22.755Z,32.90
2018-07-04T07:10:22.790Z,32.96
2018-07-04T07:11:22.830Z,32.96
2018-07-04T07:12:22.836Z,33.47
2018-07-04T07:13:22.889Z,33.62
2018-07-04T07:14:22.972Z,31.92
2018-07-04T07:15:22.930Z,31.51
2018-07-04T07:16:22.986Z,30.66
2018-07-04T07:17:22.986Z,30.75
2018-07-04T07:18:23.012Z,31.66
2018-07-04T07:19:23.056Z,32.53
2018-07-04T07:20:23.078Z,33.64
2018-07-04T07:21:23.098Z,34.10
2018-07-04T07:22:23.156Z,34.73
2018-07-04T07:23:23.169Z,35.51
2018-07-04T07:24:23.196Z,35.68
2018-07-04T07:25:23.235Z,35.67
2018-07-04T07:26:23.259Z,36.51
2018-07-04T07:27:23.287Z,36.76
2018-07-04T07:28:23.359Z,34.86
2018-07-04T07:29:23.342Z,35.33
2018-07-04T07:30:23.381Z,33.86
2018-07-04T07:31:23.414Z,35.33
2018-07-04T07:32:23.443Z,33.23
2018-07-04T07:33:23.472Z,31.52
2018-07-04T07:34:23.564Z,31.29
2018-07-04T07:35:23.530Z,31.89
2018-07-04T07:36:23.569Z,32.03
2018-07-04T07:37:23.592Z,33.90
2018-07-04T07:38:23.626Z,33.76
2018-07-04T07:39:23.653Z,33.09
2018-07-04T07:40:23.693Z,34.36
2018-07-04T07:41:23.735Z,34.30
2018-07-04T07:42:23.766Z,35.19
2018-07-04T07:43:23.806Z,33.57
2018-07-04T07:44:23.819Z,33.43
2018-07-04T07:45:23.860Z,33.94
2018-07-04T07:46:23.875Z,34.97
2018-07-04T07:47:23.934Z,34.14
2018-07-04T07:48:23.950Z,33.00
2018-07-04T07:49:23.976Z,32.75
2018-07-04T07:50:23.999Z,33.20
2018-07-04T07:51:24.034Z,34.52
2018-07-04T07:52:24.076Z,34.02
2018-07-04T07:53:24.104Z,33.43
2018-07-04T07:54:24.168Z,32.93
2018-07-04T07:55:24.169Z,33.12
2018-07-04T07:56:24.189Z,33.00
2018-07-04T07:57:24.215Z,33.37
2018-07-04T07:58:24.245Z,33.14
2018-07-04T07:59:24.294Z,32.60
2018-07-04T08:00:24.317Z,32.16
2018-07-04T08:01:24.343Z,32.46
2018-07-04T08:02:24.379Z,32.71
2018-07-04T08:03:24.442Z,34.39
2018-07-04T08:04:24.431Z,33.02
2018-07-04T08:05:24.455Z,32.16
2018-07-04T08:06:24.486Z,31.92
2018-07-04T08:07:24.517Z,31.69
2018-07-04T08:08:24.547Z,32.09
2018-07-04T08:09:24.607Z,31.56
2018-07-04T08:10:24.612Z,31.73
2018-07-04T08:11:24.637Z,32.04
2018-07-04T08:12:24.684Z,31.90
2018-07-04T08:13:24.697Z,31.65
2018-07-04T08:14:24.734Z,32.11
2018-07-04T08:15:24.755Z,32.30
2018-07-04T08:16:24.788Z,32.14
2018-07-04T08:17:24.814Z,31.85
2018-07-04T08:18:24.841Z,32.23
2018-07-04T08:19:24.867Z,32.75
2018-07-04T08:20:24.904Z,32.52
2018-07-04T08:21:24.931Z,33.37
2018-07-04T08:22:24.969Z,34.57
2018-07-04T08:23:25.001Z,35.58
2018-07-04T08:24:25.032Z,34.55
2018-07-04T08:25:25.055Z,33.14
2018-07-04T08:26:25.152Z,32.78
2018-07-04T08:27:25.107Z,32.27
2018-07-04T08:28:25.173Z,32.14
2018-07-04T08:29:25.171Z,32.18
2018-07-04T08:30:25.188Z,32.22
2018-07-04T08:31:25.237Z,33.12
2018-07-04T08:32:25.244Z,33.81
2018-07-04T08:33:25.352Z,33.64
2018-07-04T08:34:25.300Z,34.99
2018-07-04T08:35:25.337Z,35.92
2018-07-04T08:36:25.355Z,35.10
2018-07-04T08:37:25.397Z,33.37
2018-07-04T08:38:25.412Z,32.85
2018-07-04T08:39:25.464Z,33.92
2018-07-04T08:40:25.480Z,34.73
2018-07-04T08:41:25.505Z,33.65
2018-07-04T08:42:25.524Z,33.24
2018-07-04T08:43:25.553Z,33.95
2018-07-04T08:44:25.582Z,34.17
2018-07-04T08:45:25.613Z,34.16
2018-07-04T08:46:25.632Z,34.36
2018-07-04T08:47:25.661Z,33.71
2018-07-04T08:48:25.681Z,33.81
2018-07-04T08:49:25.710Z,33.47
2018-07-04T08:50:25.742Z,33.52
2018-07-04T08:51:25.783Z,33.39
2018-07-04T08:52:25.792Z,33.15
2018-07-04T08:53:25.817Z,33.46
2018-07-04T08:54:25.846Z,33.65
2018-07-04T08:55:25.873Z,33.77
2018-07-04T08:56:25.894Z,32.11
2018-07-04T08:57:25.943Z,31.09
2018-07-04T08:58:25.980Z,31.09
2018-07-04T08:59:25.974Z,31.17
2018-07-04T09:00:26.004Z,31.84
2018-07-04T09:01:26.032Z,32.04
2018-07-04T09:02:26.063Z,31.56
2018-07-04T09:03:26.094Z,31.46
2018-07-04T09:04:26.129Z,31.37
2018-07-04T09:05:26.144Z,32.34
2018-07-04T09:06:26.160Z,32.60
2018-07-04T09:07:26.191Z,31.58
2018-07-04T09:08:26.212Z,30.92
2018-07-04T09:09:26.250Z,30.68
2018-07-04T09:10:26.264Z,30.87
2018-07-04T09:11:26.326Z,31.29
2018-07-04T09:12:26.327Z,30.91
2018-07-04T09:13:26.337Z,30.97
2018-07-04T09:14:26.367Z,31.15
2018-07-04T09:15:26.390Z,31.10
2018-07-04T09:16:26.421Z,31.10
2018-07-04T09:17:26.450Z,31.52
2018-07-04T09:18:26.473Z,31.21
2018-07-04T09:19:26.500Z,31.37
2018-07-04T09:20:26.527Z,31.37
2018-07-04T09:21:26.551Z,31.56
2018-07-04T09:22:26.579Z,31.56
2018-07-04T09:23:26.604Z,31.55
2018-07-04T09:24:26.673Z,31.43
2018-07-04T09:25:26.659Z,32.18
2018-07-04T09:26:26.687Z,32.31
2018-07-04T09:27:26.724Z,32.46
2018-07-04T09:28:26.734Z,32.01
2018-07-04T09:29:26.763Z,31.81
2018-07-04T09:30:26.783Z,31.46
2018-07-04T09:31:26.809Z,31.81
2018-07-04T09:32:26.835Z,32.03
2018-07-04T09:33:26.864Z,31.85
2018-07-04T09:34:26.913Z,31.85
2018-07-04T09:35:26.927Z,32.11
2018-07-04T09:36:26.944Z,32.12
2018-07-04T09:37:26.974Z,31.70
2018-07-04T09:38:27.031Z,31.54
2018-07-04T09:39:27.030Z,31.51
2018-07-04T09:40:27.049Z,31.89
2018-07-04T09:41:27.077Z,32.04
2018-07-04T09:42:27.102Z,32.21
2018-07-04T09:43:27.140Z,32.22
2018-07-04T09:44:27.150Z,32.49
2018-07-04T09:45:27.200Z,32.46
2018-07-04T09:46:27.203Z,32.30
2018-07-04T09:47:27.239Z,32.16
2018-07-04T09:48:27.253Z,32.49
2018-07-04T09:49:27.290Z,32.51
2018-07-04T09:50:27.311Z,33.45
2018-07-04T09:51:27.338Z,34.17
2018-07-04T09:52:27.365Z,33.69
2018-07-04T09:53:27.398Z,33.15
2018-07-04T09:54:27.412Z,33.45
2018-07-04T09:55:27.447Z,33.45
2018-07-04T09:56:27.466Z,33.12
2018-07-04T09:57:27.497Z,33.40
2018-07-04T09:58:27.522Z,33.59
2018-07-04T09:59:27.550Z,34.13
2018-07-04T10:00:27.587Z,34.64
2018-07-04T10:01:27.599Z,35.07
2018-07-04T10:02:27.625Z,34.75
2018-07-04T10:03:27.655Z,33.95
2018-07-04T10:04:27.692Z,33.61
2018-07-04T10:05:27.707Z,33.20
2018-07-04T10:06:27.770Z,33.47
2018-07-04T10:07:27.762Z,33.86
2018-07-04T10:08:27.795Z,34.48
2018-07-04T10:09:27.827Z,35.15
2018-07-04T10:10:27.849Z,35.33
2018-07-04T10:11:27.872Z,34.61
2018-07-04T10:12:27.900Z,35.29
2018-07-04T10:13:27.925Z,35.56
2018-07-04T10:14:27.955Z,35.31
2018-07-04T10:15:28.005Z,35.51
2018-07-04T10:16:28.020Z,35.27
2018-07-04T10:17:28.043Z,34.90
2018-07-04T10:18:28.069Z,34.45
2018-07-04T10:19:28.094Z,33.92
2018-07-04T10:20:28.124Z,33.92
2018-07-04T10:21:28.146Z,33.64
2018-07-04T10:22:28.175Z,33.79
2018-07-04T10:23:28.203Z,33.69
2018-07-04T10:24:28.236Z,33.58
2018-07-04T10:25:28.259Z,33.69
2018-07-04T10:26:28.280Z,34.17
2018-07-04T10:27:28.313Z,34.05
2018-07-04T10:28:28.344Z,33.71
2018-07-04T10:29:28.363Z,33.71
2018-07-04T10:30:28.388Z,33.69
2018-07-04T10:31:28.441Z,33.94
2018-07-04T10:32:28.452Z,34.25
2018-07-04T10:33:28.472Z,35.00
2018-07-04T10:34:28.589Z,34.74
2018-07-04T10:35:28.528Z,34.30
2018-07-04T10:36:28.569Z,34.27
2018-07-04T10:37:28.577Z,34.62
2018-07-04T10:38:28.621Z,35.19
2018-07-04T10:39:28.631Z,34.71
2018-07-04T10:40:28.669Z,34.29
2018-07-04T10:41:28.690Z,34.38
2018-07-04T10:42:28.717Z,34.89
2018-07-04T10:43:28.743Z,34.61
2018-07-04T10:44:28.770Z,35.30
2018-07-04T10:45:28.795Z,35.51
2018-07-04T10:46:28.834Z,35.90
2018-07-04T10:47:28.852Z,35.85
2018-07-04T10:48:28.880Z,35.56
2018-07-04T10:49:28.976Z,35.33
2018-07-04T10:50:28.939Z,35.12
2018-07-04T10:51:28.962Z,34.24
2018-07-04T10:52:28.994Z,34.21
2018-07-04T10:53:29.014Z,34.64
2018-07-04T10:54:29.048Z,34.36
2018-07-04T10:55:29.091Z,34.30
2018-07-04T10:56:29.113Z,34.25
2018-07-04T10:57:29.146Z,34.62
2018-07-04T10:58:29.215Z,34.57
2018-07-04T10:59:29.179Z,34.86
2018-07-04T11:00:29.211Z,34.86
2018-07-04T11:01:29.229Z,35.04
2018-07-04T11:02:29.265Z,35.53
2018-07-04T11:03:29.282Z,35.30
2018-07-04T11:04:29.360Z,35.26
2018-07-04T11:05:29.340Z,35.56
2018-07-04T11:06:29.365Z,35.64
2018-07-04T11:07:29.393Z,35.39
2018-07-04T11:08:29.439Z,35.02
2018-07-04T11:09:29.469Z,34.32
2018-07-04T11:10:29.474Z,34.10
2018-07-04T11:11:29.523Z,33.74
2018-07-04T11:12:29.543Z,33.61
2018-07-04T11:13:29.556Z,33.84
2018-07-04T11:14:29.582Z,34.01
2018-07-04T11:15:29.619Z,34.62
2018-07-04T11:16:29.650Z,35.14
2018-07-04T11:17:29.665Z,34.64
2018-07-04T11:18:29.693Z,34.32
2018-07-04T11:19:29.717Z,34.20
2018-07-04T11:20:29.748Z,34.35
2018-07-04T11:21:29.776Z,34.33
2018-07-04T11:22:29.851Z,34.27
2018-07-04T11:23:29.833Z,34.50
2018-07-04T11:24:29.860Z,34.86
2018-07-04T11:25:29.885Z,34.74
2018-07-04T11:26:29.911Z,34.43
2018-07-04T11:27:29.948Z,34.60
2018-07-04T11:28:30.014Z,34.52
2018-07-04T11:29:29.999Z,34.71
2018-07-04T11:30:30.030Z,34.29
2018-07-04T11:31:30.056Z,34.55
2018-07-04T11:32:30.074Z,34.90
2018-07-04T11:33:30.108Z,35.22
2018-07-04T11:34:30.126Z,35.49
2018-07-04T11:35:30.156Z,35.98
2018-07-04T11:36:30.181Z,35.89
2018-07-04T11:37:30.213Z,35.27
2018-07-04T11:38:30.403Z,35.00
2018-07-04T11:39:30.267Z,34.93
2018-07-04T11:40:30.299Z,35.18
2018-07-04T11:41:30.321Z,35.52
2018-07-04T11:42:30.358Z,35.55
2018-07-04T11:43:30.378Z,34.39
2018-07-04T11:44:30.418Z,34.51
2018-07-04T11:45:30.431Z,34.75
2018-07-04T11:46:30.469Z,34.73
2018-07-04T11:47:30.488Z,34.95
2018-07-04T11:48:30.522Z,34.55
2018-07-04T11:49:30.585Z,34.48
2018-07-04T11:50:30.567Z,34.55
2018-07-04T11:51:30.621Z,34.54
2018-07-04T11:52:30.625Z,34.42
2018-07-04T11:53:30.650Z,33.92
2018-07-04T11:54:30.700Z,34.10
2018-07-04T11:55:30.712Z,33.76
2018-07-04T11:56:30.759Z,33.34
2018-07-04T11:57:30.761Z,33.58
2018-07-04T11:58:30.795Z,34.16
2018-07-04T11:59:30.815Z,34.58
2018-07-04T12:00:30.856Z,34.17
2018-07-04T12:01:30.880Z,33.79
2018-07-04T12:02:30.901Z,34.01
2018-07-04T12:03:30.929Z,34.74
2018-07-04T12:04:30.957Z,34.89
2018-07-04T12:05:31.031Z,34.71
2018-07-04T12:06:31.014Z,35.11
2018-07-04T12:07:31.039Z,34.60
2018-07-04T12:08:31.066Z,34.83
2018-07-04T12:09:31.092Z,34.92
2018-07-04T12:10:31.129Z,34.39
2018-07-04T12:11:31.164Z,34.24
2018-07-04T12:12:31.178Z,34.20
2018-07-04T12:13:31.200Z,34.17
2018-07-04T12:14:31.235Z,34.55
2018-07-04T12:15:31.261Z,34.85
2018-07-04T12:16:31.287Z,34.81
2018-07-04T12:17:31.308Z,34.92
2018-07-04T12:18:31.336Z,35.15
2018-07-04T12:19:31.373Z,35.42
2018-07-04T12:20:31.412Z,35.66
2018-07-04T12:21:31.431Z,35.53
2018-07-04T12:22:31.448Z,35.41
2018-07-04T12:23:31.479Z,35.44
2018-07-04T12:24:31.519Z,35.45
2018-07-04T12:25:31.532Z,35.49
2018-07-04T12:26:31.586Z,35.53
2018-07-04T12:27:31.603Z,35.33
2018-07-04T12:28:31.608Z,35.61
2018-07-04T12:29:31.636Z,35.52
2018-07-04T12:30:31.668Z,35.78
2018-07-04T12:31:31.697Z,35.61
2018-07-04T12:32:31.725Z,35.51
2018-07-04T12:33:31.741Z,35.52
2018-07-04T12:34:31.777Z,34.90
2018-07-04T12:35:31.811Z,35.49
2018-07-04T12:36:31.832Z,35.64
2018-07-04T12:37:31.897Z,35.89
2018-07-04T12:38:31.882Z,35.85
2018-07-04T12:39:31.905Z,35.55
2018-07-04T12:40:32.015Z,35.44
2018-07-04T12:41:31.973Z,35.73
2018-07-04T12:42:31.990Z,36.17
2018-07-04T12:43:32.102Z,36.23
2018-07-04T12:44:32.054Z,36.05
2018-07-04T12:45:39.394Z,35.33
2018-07-04T12:46:32.105Z,34.74
2018-07-04T12:47:32.125Z,34.96
2018-07-04T12:48:32.158Z,35.00
2018-07-04T12:49:32.178Z,35.41
2018-07-04T12:50:32.234Z,36.00
2018-07-04T12:51:32.232Z,35.97
2018-07-04T12:52:32.276Z,36.01